Ecokeeper — SVTY — position and weather

sailwx.info

Track history (hours):
 
Tides and Currents Weather Stations Pressure Air Temp Water Temp Dewpoint Dewpoint Depression Visibility Wind Speed Wind Dir Waves Ship Positions

Ecokeeper

Last reported at 2017-Mar-27 11:33 UTC. Time now 2017-Mar-27 18:25 UTC.
Position N 37°58' E 023°33'.

Length 90 m; draft 4.2 m.

Type: Tanker. MMSI: 240689000.

Date/timePositionNaut miles runAvg speedWind from/ knotsBaromVisibWave heightAir tempDewpointWater temp
2017-Mar-27 11:33N 37°58' E 023°33'3 3.5
2017-Mar-27 10:33N 38°02' E 023°32'0 0.0
2017-Mar-27 09:33N 38°02' E 023°32'0 0.0
2017-Mar-27 08:33N 38°02' E 023°32'0 0.0
2017-Mar-27 07:33N 38°02' E 023°32'0 0.0
2017-Mar-27 06:33N 38°02' E 023°32'3 2.5
2017-Mar-27 05:33N 37°59' E 023°33'  
2017-Mar-24 10:33N 37°57' E 023°34'0 0.0
2017-Mar-24 09:33N 37°57' E 023°34'0 0.0
2017-Mar-23 12:30N 37°57' E 023°34'3 3.3
2017-Mar-23 11:33N 37°54' E 023°33'3 3.1
2017-Mar-23 10:33N 37°51' E 023°32'0 0.1
2017-Mar-23 09:33N 37°51' E 023°32'0 0.1
2017-Mar-23 08:33N 37°51' E 023°32'0 0.0
2017-Mar-23 06:16N 37°51' E 023°32'3 4.0
2017-Mar-23 05:33N 37°54' E 023°33'3 3.4
2017-Mar-23 04:33N 37°57' E 023°34'  
2017-Mar-20 07:33N 37°57' E 023°33'5 5.3
2017-Mar-20 06:33N 38°02' E 023°30'0 0.0
2017-Mar-20 05:33N 38°02' E 023°30'0 0.0
2017-Mar-20 04:33N 38°02' E 023°30'0 0.0
2017-Mar-20 03:33N 38°02' E 023°30'0 0.0
2017-Mar-20 02:33N 38°02' E 023°30'0 0.0
2017-Mar-20 01:33N 38°02' E 023°30'0 0.0
2017-Mar-20 00:33N 38°02' E 023°30'0 0.0
2017-Mar-19 23:33N 38°02' E 023°30'0 0.0
2017-Mar-19 22:33N 38°02' E 023°30'0 0.0
2017-Mar-19 21:33N 38°02' E 023°30'0 0.0
2017-Mar-19 20:33N 38°02' E 023°30'0 0.0
2017-Mar-19 19:33N 38°02' E 023°30'0 0.0
2017-Mar-19 18:33N 38°02' E 023°30'0 0.0
2017-Mar-19 17:33N 38°02' E 023°30'1 0.7
2017-Mar-19 16:33N 38°02' E 023°30'5 4.9
2017-Mar-19 15:33N 37°57' E 023°33'0 0.0
2017-Mar-18 13:13N 37°57' E 023°34'2 3.6
2017-Mar-18 12:33N 37°57' E 023°37'0 0.0
2017-Mar-18 06:27N 37°57' E 023°37'0 0.2
2017-Mar-18 05:33N 37°57' E 023°37'5 4.9
2017-Mar-18 04:34N 38°00' E 023°33'3 2.6
2017-Mar-18 03:33N 38°02' E 023°30'0 0.0
2017-Mar-18 02:33N 38°02' E 023°30'0 0.0
2017-Mar-18 01:33N 38°02' E 023°30'0 0.0
2017-Mar-18 00:33N 38°02' E 023°30'0 0.0
2017-Mar-17 23:33N 38°02' E 023°30'0 0.0
2017-Mar-17 22:33N 38°02' E 023°30'0 0.0
2017-Mar-17 21:34N 38°02' E 023°30'0 0.0
2017-Mar-17 20:33N 38°02' E 023°30'0 0.0
2017-Mar-17 19:33N 38°02' E 023°30'0 0.0
2017-Mar-17 18:33N 38°02' E 023°30'0 0.0
2017-Mar-17 17:33N 38°02' E 023°30'0 0.0
2017-Mar-17 16:33N 38°02' E 023°30'0 0.0
2017-Mar-17 15:33N 38°02' E 023°30'0 0.0
2017-Mar-17 14:33N 38°02' E 023°30'0 0.0
2017-Mar-17 13:34N 38°02' E 023°30'0 0.0
2017-Mar-17 12:33N 38°02' E 023°30'0 0.0
2017-Mar-17 11:34N 38°02' E 023°30'  
Track history (hours):
 
Tides and Currents Weather Stations Pressure Air Temp Water Temp Dewpoint Dewpoint Depression Visibility Wind Speed Wind Dir Waves Ship Positions

Ecokeeper

Last reported at 2017-Mar-27 11:33 UTC. Time now 2017-Mar-27 18:25 UTC.
Position N 37°58' E 023°33'.

Length 90 m; draft 4.2 m.

Type: Tanker. MMSI: 240689000.

Date/timePositionNaut miles runAvg speedWind from/ knotsBaromVisibWave heightAir tempDewpointWater temp
2017-Mar-27 11:33N 37°58' E 023°33'3 3.5
2017-Mar-27 10:33N 38°02' E 023°32'0 0.0
2017-Mar-27 09:33N 38°02' E 023°32'0 0.0
2017-Mar-27 08:33N 38°02' E 023°32'0 0.0
2017-Mar-27 07:33N 38°02' E 023°32'0 0.0
2017-Mar-27 06:33N 38°02' E 023°32'3 2.5
2017-Mar-27 05:33N 37°59' E 023°33'  
2017-Mar-24 10:33N 37°57' E 023°34'0 0.0
2017-Mar-24 09:33N 37°57' E 023°34'0 0.0
2017-Mar-23 12:30N 37°57' E 023°34'3 3.3
2017-Mar-23 11:33N 37°54' E 023°33'3 3.1
2017-Mar-23 10:33N 37°51' E 023°32'0 0.1
2017-Mar-23 09:33N 37°51' E 023°32'0 0.1
2017-Mar-23 08:33N 37°51' E 023°32'0 0.0
2017-Mar-23 06:16N 37°51' E 023°32'3 4.0
2017-Mar-23 05:33N 37°54' E 023°33'3 3.4
2017-Mar-23 04:33N 37°57' E 023°34'  
2017-Mar-20 07:33N 37°57' E 023°33'5 5.3
2017-Mar-20 06:33N 38°02' E 023°30'0 0.0
2017-Mar-20 05:33N 38°02' E 023°30'0 0.0
2017-Mar-20 04:33N 38°02' E 023°30'0 0.0
2017-Mar-20 03:33N 38°02' E 023°30'0 0.0
2017-Mar-20 02:33N 38°02' E 023°30'0 0.0
2017-Mar-20 01:33N 38°02' E 023°30'0 0.0
2017-Mar-20 00:33N 38°02' E 023°30'0 0.0
2017-Mar-19 23:33N 38°02' E 023°30'0 0.0
2017-Mar-19 22:33N 38°02' E 023°30'0 0.0
2017-Mar-19 21:33N 38°02' E 023°30'0 0.0
2017-Mar-19 20:33N 38°02' E 023°30'0 0.0
2017-Mar-19 19:33N 38°02' E 023°30'0 0.0
2017-Mar-19 18:33N 38°02' E 023°30'0 0.0
2017-Mar-19 17:33N 38°02' E 023°30'1 0.7
2017-Mar-19 16:33N 38°02' E 023°30'5 4.9
2017-Mar-19 15:33N 37°57' E 023°33'0 0.0
2017-Mar-18 13:13N 37°57' E 023°34'2 3.6
2017-Mar-18 12:33N 37°57' E 023°37'0 0.0
2017-Mar-18 06:27N 37°57' E 023°37'0 0.2
2017-Mar-18 05:33N 37°57' E 023°37'5 4.9
2017-Mar-18 04:34N 38°00' E 023°33'3 2.6
2017-Mar-18 03:33N 38°02' E 023°30'0 0.0
2017-Mar-18 02:33N 38°02' E 023°30'0 0.0
2017-Mar-18 01:33N 38°02' E 023°30'0 0.0
2017-Mar-18 00:33N 38°02' E 023°30'0 0.0
2017-Mar-17 23:33N 38°02' E 023°30'0 0.0
2017-Mar-17 22:33N 38°02' E 023°30'0 0.0
2017-Mar-17 21:34N 38°02' E 023°30'0 0.0
2017-Mar-17 20:33N 38°02' E 023°30'0 0.0
2017-Mar-17 19:33N 38°02' E 023°30'0 0.0
2017-Mar-17 18:33N 38°02' E 023°30'0 0.0
2017-Mar-17 17:33N 38°02' E 023°30'0 0.0
2017-Mar-17 16:33N 38°02' E 023°30'0 0.0
2017-Mar-17 15:33N 38°02' E 023°30'0 0.0
2017-Mar-17 14:33N 38°02' E 023°30'0 0.0
2017-Mar-17 13:34N 38°02' E 023°30'0 0.0
2017-Mar-17 12:33N 38°02' E 023°30'0 0.0
2017-Mar-17 11:34N 38°02' E 023°30'  

Dump ship's entire track history